Time;durP1;ratioP1;P1;durP2;ratioP2;P2;SDS_P1;SDS_P2;PMS_P1;PMS_P2;Temp;Humidity;BMP_temperature;BMP_pressure;BME280_temperature;BME280_humidity;BME280_pressure;Samples;Min_cycle;Max_cycle;Signal;HPM_P1;HPM_P2
2022/11/21 00:01:20;;;;;;;52.70;23.40;;;3.40;99.90;;;;;;6231615;23;20317;-81
2022/11/21 00:03:46;;;;;;;51.22;21.77;;;3.50;99.90;;;;;;6231369;23;20032;-81
2022/11/21 00:06:12;;;;;;;51.33;21.85;;;3.50;99.90;;;;;;6230847;23;20454;-82
2022/11/21 00:08:38;;;;;;;48.65;19.67;;;3.50;99.90;;;;;;6230845;23;20036;-80
2022/11/21 00:11:04;;;;;;;54.05;22.33;;;3.50;99.90;;;;;;6231684;23;20459;-81
2022/11/21 00:13:30;;;;;;;47.97;22.27;;;3.50;99.90;;;;;;6231341;23;20055;-80
2022/11/21 00:16:01;;;;;;;47.35;20.83;;;3.50;99.90;;;;;;6234178;23;20016;-80
2022/11/21 00:18:27;;;;;;;47.88;20.92;;;3.50;99.90;;;;;;6237855;23;19992;-80
2022/11/21 00:20:52;;;;;;;45.70;20.48;;;3.50;99.90;;;;;;6233367;23;20008;-81
2022/11/21 00:23:18;;;;;;;46.25;19.67;;;3.50;99.90;;;;;;6235490;23;20028;-80
2022/11/21 00:25:44;;;;;;;50.63;20.23;;;3.50;99.90;;;;;;6237209;23;19997;-80
2022/11/21 00:28:10;;;;;;;56.90;21.02;;;3.60;99.90;;;;;;6234716;23;20012;-79
2022/11/21 00:30:35;;;;;;;53.30;21.08;;;3.50;99.90;;;;;;6237859;23;19997;-80
2022/11/21 00:33:01;;;;;;;47.88;19.63;;;3.60;99.90;;;;;;6238507;23;20000;-79
2022/11/21 00:35:27;;;;;;;51.35;22.15;;;3.50;99.90;;;;;;6237826;23;20024;-82
2022/11/21 00:37:53;;;;;;;45.50;19.98;;;3.60;99.90;;;;;;6236837;23;20011;-78
2022/11/21 00:40:18;;;;;;;44.78;20.98;;;3.60;99.90;;;;;;6233690;23;20020;-81
2022/11/21 00:42:44;;;;;;;44.45;19.88;;;3.60;99.90;;;;;;6208443;23;20005;-80
2022/11/21 00:45:10;;;;;;;45.58;18.30;;;3.60;99.90;;;;;;6209656;23;20012;-80
2022/11/21 00:47:36;;;;;;;51.05;20.70;;;3.60;99.90;;;;;;6209102;23;20000;-80
2022/11/21 00:50:02;;;;;;;44.00;20.17;;;3.70;99.90;;;;;;6234774;23;20452;-80
2022/11/21 00:52:28;;;;;;;47.92;21.00;;;3.70;99.90;;;;;;6238568;23;20005;-79
2022/11/21 00:54:54;;;;;;;42.20;19.52;;;3.70;99.90;;;;;;6239268;23;20001;-80
2022/11/21 00:57:20;;;;;;;43.15;18.92;;;3.80;99.90;;;;;;6240181;23;20005;-80
2022/11/21 00:59:45;;;;;;;44.20;19.80;;;3.70;99.90;;;;;;6239024;23;20009;-80
2022/11/21 01:02:12;;;;;;;49.53;19.30;;;3.70;99.90;;;;;;6214534;23;20050;-80
2022/11/21 01:04:38;;;;;;;42.10;19.45;;;3.80;99.90;;;;;;6240444;23;19997;-80
2022/11/21 01:07:04;;;;;;;43.28;19.70;;;3.70;99.90;;;;;;6237098;23;19993;-80
2022/11/21 01:09:30;;;;;;;45.35;18.52;;;3.70;99.90;;;;;;6239448;23;20020;-79
2022/11/21 01:11:56;;;;;;;49.55;21.02;;;3.70;99.90;;;;;;6237833;23;20012;-80
2022/11/21 01:14:22;;;;;;;46.05;21.27;;;3.70;99.90;;;;;;6236484;23;19989;-79
2022/11/21 01:16:47;;;;;;;54.42;21.73;;;3.60;99.90;;;;;;6238379;23;20004;-81
2022/11/21 01:19:13;;;;;;;50.50;22.50;;;3.60;99.90;;;;;;6240001;23;20580;-80
2022/11/21 01:21:39;;;;;;;56.30;22.80;;;3.60;99.90;;;;;;6214888;23;20032;-79
2022/11/21 01:24:05;;;;;;;45.72;22.05;;;3.60;99.90;;;;;;6234156;23;20011;-80
2022/11/21 01:26:32;;;;;;;51.50;23.05;;;3.50;99.90;;;;;;6204008;23;20393;-79
2022/11/21 01:28:58;;;;;;;54.50;23.27;;;3.50;99.90;;;;;;6233636;23;20032;-80
2022/11/21 01:31:28;;;;;;;53.60;23.73;;;3.50;99.90;;;;;;6237959;23;20080;-80
2022/11/21 01:33:55;;;;;;;58.97;24.35;;;3.50;99.90;;;;;;6236237;23;20000;-79
2022/11/21 01:36:25;;;;;;;54.63;23.08;;;3.50;99.90;;;;;;6240368;23;20016;-79
2022/11/21 01:38:53;;;;;;;55.28;23.42;;;3.50;99.90;;;;;;6240945;23;20016;-81
2022/11/21 01:41:21;;;;;;;56.85;24.77;;;3.50;99.90;;;;;;6237116;23;20000;-80
2022/11/21 01:43:48;;;;;;;59.22;25.17;;;3.40;99.90;;;;;;6234521;23;20005;-81
2022/11/21 01:46:21;;;;;;;53.85;24.13;;;3.50;99.90;;;;;;6215221;23;20003;-78
2022/11/21 01:49:14;;;;;;;58.47;24.13;;;3.50;99.90;;;;;;6242847;23;19992;-80
2022/11/21 01:52:05;;;;;;;61.22;23.58;;;3.40;99.90;;;;;;6243181;23;20023;-79
2022/11/21 01:54:49;;;;;;;54.60;23.17;;;3.50;99.90;;;;;;6243262;23;20039;-81
2022/11/21 01:57:25;;;;;;;62.93;23.47;;;3.50;99.90;;;;;;6243110;23;19992;-79
2022/11/21 02:00:01;;;;;;;55.58;22.33;;;3.60;99.90;;;;;;6242436;23;20260;-79
2022/11/21 02:02:32;;;;;;;55.00;23.38;;;3.70;99.90;;;;;;6243115;23;20000;-81
2022/11/21 02:04:59;;;;;;;51.63;22.58;;;3.70;99.90;;;;;;6233922;23;20012;-81
2022/11/21 02:07:27;;;;;;;45.58;20.27;;;3.70;99.90;;;;;;6231106;23;19996;-80
2022/11/21 02:09:57;;;;;;;54.03;23.63;;;3.70;99.90;;;;;;6231238;23;20008;-81
2022/11/21 02:12:31;;;;;;;47.58;20.88;;;3.70;99.90;;;;;;6232557;23;20481;-80
2022/11/21 02:14:58;;;;;;;44.38;20.67;;;3.70;99.90;;;;;;6233144;23;20004;-80
2022/11/21 02:17:27;;;;;;;42.17;18.55;;;3.70;99.90;;;;;;6237018;23;20000;-79
2022/11/21 02:19:57;;;;;;;51.33;19.60;;;3.70;99.90;;;;;;6238269;23;20008;-80
2022/11/21 02:23:00;;;;;;;41.63;18.80;;;3.70;99.90;;;;;;6236166;23;20031;-79
2022/11/21 02:25:34;;;;;;;42.35;19.40;;;3.80;99.90;;;;;;6231863;23;20001;-80
2022/11/21 02:28:05;;;;;;;41.60;18.88;;;3.70;99.90;;;;;;6232082;23;20080;-81
2022/11/21 02:30:35;;;;;;;44.65;18.83;;;3.70;99.90;;;;;;6235848;23;20451;-79
2022/11/21 02:33:01;;;;;;;39.00;18.17;;;3.60;99.90;;;;;;6237852;23;19996;-80
2022/11/21 02:35:27;;;;;;;35.13;17.13;;;3.60;99.90;;;;;;6214397;23;19989;-78
2022/11/21 02:37:58;;;;;;;41.22;18.33;;;3.60;99.90;;;;;;6209543;23;20017;-82
2022/11/21 02:41:07;;;;;;;39.65;17.83;;;3.60;99.90;;;;;;6234284;23;20039;-81
2022/11/21 02:43:45;;;;;;;37.50;16.42;;;3.50;99.90;;;;;;6235072;23;20043;-80
2022/11/21 02:46:11;;;;;;;38.38;18.35;;;3.50;99.90;;;;;;6236255;23;20004;-81
2022/11/21 02:48:37;;;;;;;45.47;19.35;;;3.50;99.90;;;;;;6237678;23;19999;-80
2022/11/21 02:51:04;;;;;;;37.20;17.02;;;3.40;99.90;;;;;;6234356;23;20015;-80
2022/11/21 02:53:29;;;;;;;40.83;18.55;;;3.40;99.90;;;;;;6233629;23;20007;-80
2022/11/21 02:55:55;;;;;;;40.35;18.25;;;3.40;99.90;;;;;;6231921;23;20008;-79
2022/11/21 02:58:21;;;;;;;39.78;17.80;;;3.30;99.90;;;;;;6232498;23;20054;-80
2022/11/21 03:00:47;;;;;;;39.63;17.55;;;3.30;99.90;;;;;;6232806;23;20011;-80
2022/11/21 03:03:13;;;;;;;38.90;18.13;;;3.30;99.90;;;;;;6206821;23;20005;-81
2022/11/21 03:05:39;;;;;;;43.38;18.83;;;3.30;99.90;;;;;;6216489;22;20027;-79
2022/11/21 03:08:05;;;;;;;37.17;17.05;;;3.40;99.90;;;;;;6218059;22;20000;-79
2022/11/21 03:10:31;;;;;;;42.63;17.20;;;3.40;99.90;;;;;;6243850;22;20004;-79
2022/11/21 03:13:01;;;;;;;38.72;18.50;;;3.50;99.90;;;;;;6243486;22;20068;-80
2022/11/21 03:15:32;;;;;;;40.47;18.23;;;3.60;99.90;;;;;;6233829;23;20079;-81
2022/11/21 03:18:01;;;;;;;40.35;17.42;;;3.60;99.90;;;;;;6232273;23;20060;-80
2022/11/21 03:20:31;;;;;;;37.33;16.42;;;3.70;99.90;;;;;;6206390;23;20328;-80
2022/11/21 03:22:57;;;;;;;33.17;15.82;;;3.80;99.90;;;;;;6231008;23;20009;-80
2022/11/21 03:25:23;;;;;;;34.72;16.45;;;3.80;99.90;;;;;;6232408;23;20005;-80
2022/11/21 03:27:52;;;;;;;37.45;15.45;;;3.90;99.90;;;;;;6231862;23;20008;-80
2022/11/21 03:30:20;;;;;;;34.17;15.52;;;3.90;99.90;;;;;;6205903;23;20008;-80
2022/11/21 03:32:45;;;;;;;29.77;13.48;;;3.90;99.90;;;;;;6232035;23;20009;-81
2022/11/21 03:35:11;;;;;;;30.17;14.30;;;3.90;99.90;;;;;;6232062;23;20072;-78
2022/11/21 03:37:37;;;;;;;31.00;15.13;;;3.90;99.90;;;;;;6205036;23;20016;-80
2022/11/21 03:40:03;;;;;;;34.42;14.63;;;3.90;99.90;;;;;;6233860;23;20039;-80
2022/11/21 03:42:29;;;;;;;26.10;12.32;;;4.00;99.90;;;;;;6234531;23;20012;-80
2022/11/21 03:44:55;;;;;;;26.65;12.52;;;4.00;99.90;;;;;;6211538;23;19996;-80
2022/11/21 03:47:23;;;;;;;23.88;10.95;;;4.10;99.90;;;;;;6238199;23;20000;-79
2022/11/21 03:49:49;;;;;;;23.63;10.75;;;4.10;99.90;;;;;;6237727;23;20000;-81
2022/11/21 03:52:14;;;;;;;22.17;10.90;;;4.10;99.90;;;;;;6233383;23;20005;-79
2022/11/21 03:54:40;;;;;;;24.15;10.95;;;4.10;99.90;;;;;;6234907;23;20004;-79
2022/11/21 03:57:06;;;;;;;24.45;9.82;;;4.10;99.90;;;;;;6232947;23;20055;-80
2022/11/21 03:59:32;;;;;;;21.70;9.88;;;4.10;99.90;;;;;;6235528;23;20031;-80
2022/11/21 04:01:58;;;;;;;20.67;10.57;;;4.20;99.90;;;;;;6207191;23;20145;-81
2022/11/21 04:04:23;;;;;;;21.95;11.05;;;4.20;99.90;;;;;;6240207;23;20000;-79
2022/11/21 04:06:49;;;;;;;23.95;10.73;;;4.30;99.90;;;;;;6238511;23;19992;-80
2022/11/21 04:09:15;;;;;;;23.17;9.75;;;4.30;99.90;;;;;;6239839;23;20135;-80
2022/11/21 04:11:41;;;;;;;22.48;11.27;;;4.30;99.90;;;;;;6237190;23;20043;-81
2022/11/21 04:14:06;;;;;;;24.67;11.35;;;4.40;99.90;;;;;;6240117;23;20007;-79
2022/11/21 04:16:32;;;;;;;22.15;11.80;;;4.40;99.90;;;;;;6242337;23;20016;-80
2022/11/21 04:18:58;;;;;;;21.52;10.85;;;4.40;99.90;;;;;;6242684;23;20004;-79
2022/11/21 04:21:24;;;;;;;22.20;10.27;;;4.40;99.90;;;;;;6242294;23;20001;-80
2022/11/21 04:23:49;;;;;;;23.38;10.65;;;4.40;99.90;;;;;;6241024;23;20031;-80
2022/11/21 04:26:15;;;;;;;24.77;11.45;;;4.40;99.90;;;;;;6235229;23;20005;-79
2022/11/21 04:28:41;;;;;;;20.90;10.73;;;4.30;99.90;;;;;;6232779;23;20069;-80
2022/11/21 04:31:08;;;;;;;25.23;11.45;;;4.30;99.90;;;;;;6231754;23;20478;-80
2022/11/21 04:33:34;;;;;;;23.92;10.65;;;4.30;99.90;;;;;;6233445;23;20052;-82
2022/11/21 04:36:00;;;;;;;21.70;10.80;;;4.30;99.90;;;;;;6233229;23;20027;-80
2022/11/21 04:38:26;;;;;;;20.90;10.80;;;4.30;99.90;;;;;;6206422;23;19996;-82
2022/11/21 04:40:52;;;;;;;14.93;7.95;;;4.30;99.90;;;;;;6206204;23;20020;-80
2022/11/21 04:43:17;;;;;;;16.35;8.43;;;4.50;99.90;;;;;;6228665;23;20007;-81
2022/11/21 04:45:43;;;;;;;15.23;7.05;;;4.60;99.90;;;;;;6231380;23;20001;-80
2022/11/21 04:48:10;;;;;;;7.13;4.10;;;4.70;99.90;;;;;;6203153;23;20016;-79
2022/11/21 04:50:35;;;;;;;10.45;3.30;;;5.00;99.90;;;;;;6229642;23;20056;-82
2022/11/21 04:53:01;;;;;;;3.42;2.28;;;5.30;99.90;;;;;;6231942;23;20000;-81
2022/11/21 04:55:30;;;;;;;3.40;2.10;;;5.50;99.90;;;;;;6231411;23;20050;-79
2022/11/21 04:57:57;;;;;;;2.95;1.85;;;5.60;99.90;;;;;;6231243;23;20024;-79
2022/11/21 05:00:23;;;;;;;4.28;1.80;;;5.70;99.90;;;;;;6232150;23;20017;-80
2022/11/21 05:02:48;;;;;;;4.78;2.00;;;5.80;99.90;;;;;;6233789;23;20032;-82
2022/11/21 05:05:14;;;;;;;3.22;2.35;;;5.80;99.90;;;;;;6232075;23;20007;-80
2022/11/21 05:07:40;;;;;;;5.00;2.30;;;5.90;99.90;;;;;;6206456;23;20027;-80
2022/11/21 05:10:07;;;;;;;4.75;2.10;;;5.90;99.90;;;;;;6232532;23;20023;-81
2022/11/21 05:15:18;;;;;;;5.43;2.30;;;5.90;99.90;;;;;;6232806;23;20019;-82
2022/11/21 05:17:43;;;;;;;3.88;2.40;;;5.90;99.90;;;;;;6233302;23;20001;-85
2022/11/21 05:20:13;;;;;;;2.50;2.10;;;5.90;99.90;;;;;;6206802;23;20084;-82
2022/11/21 05:22:51;;;;;;;2.90;1.90;;;5.90;99.90;;;;;;6273352;22;20062;-83
2022/11/21 05:25:17;;;;;;;3.33;2.10;;;5.90;99.90;;;;;;6273476;22;19996;-84
2022/11/21 05:27:43;;;;;;;3.40;2.05;;;5.90;99.90;;;;;;6247487;22;20003;-87
2022/11/21 05:30:10;;;;;;;2.90;1.80;;;5.90;99.90;;;;;;6247981;23;20003;-84
2022/11/21 05:32:36;;;;;;;3.95;2.15;;;5.90;99.90;;;;;;6273753;22;19981;-86
2022/11/21 05:35:02;;;;;;;5.93;2.58;;;6.00;99.90;;;;;;6272935;22;20027;-87
2022/11/21 05:37:28;;;;;;;2.58;1.88;;;6.00;99.90;;;;;;6246110;23;20070;-85
2022/11/21 05:39:54;;;;;;;3.30;1.80;;;6.10;99.90;;;;;;6243974;23;20008;-86
2022/11/21 05:43:44;;;;;;;3.92;1.60;;;6.10;99.90;;;;;;6216268;23;20000;-88
2022/11/21 05:45:06;;;;;;;3.22;1.80;;;6.10;99.90;;;;;;6244603;22;20016;-85
2022/11/21 05:47:32;;;;;;;7.65;1.70;;;6.20;99.90;;;;;;6248137;22;19992;-85
2022/11/21 05:49:58;;;;;;;2.85;1.60;;;6.20;99.90;;;;;;6248387;23;20015;-86
2022/11/21 05:52:24;;;;;;;7.13;2.17;;;6.30;99.90;;;;;;6271576;23;19988;-86
2022/11/21 05:54:49;;;;;;;2.30;1.52;;;6.30;99.90;;;;;;6244161;23;19996;-88
2022/11/21 05:57:15;;;;;;;3.10;1.58;;;6.30;99.90;;;;;;6269965;23;20023;-86
2022/11/21 05:59:41;;;;;;;4.95;1.80;;;6.40;99.90;;;;;;6244974;23;20374;-81
2022/11/21 06:04:51;;;;;;;2.03;1.50;;;6.40;99.90;;;;;;6274379;22;20529;-85
2022/11/21 06:07:17;;;;;;;4.15;1.40;;;6.40;99.90;;;;;;6246905;22;20019;-82
2022/11/21 06:09:43;;;;;;;2.08;1.50;;;6.40;99.90;;;;;;6270849;22;20011;-85
2022/11/21 06:12:08;;;;;;;4.75;1.55;;;6.50;99.90;;;;;;6272607;23;19988;-82
2022/11/21 06:14:34;;;;;;;10.98;4.32;;;6.40;99.90;;;;;;6242911;23;20000;-85
2022/11/21 06:17:00;;;;;;;6.65;2.47;;;6.40;99.90;;;;;;6269436;23;19997;-83
2022/11/21 06:19:26;;;;;;;5.10;2.20;;;6.50;99.90;;;;;;6239712;23;20004;-86
2022/11/21 06:21:51;;;;;;;11.32;2.38;;;6.50;99.90;;;;;;6240083;23;20015;-86
2022/11/21 06:24:18;;;;;;;2.28;1.65;;;6.50;99.90;;;;;;6242848;23;20703;-85
2022/11/21 06:26:44;;;;;;;5.97;1.67;;;6.50;99.90;;;;;;6244913;23;20048;-86
2022/11/21 06:29:11;;;;;;;2.00;1.38;;;6.50;99.90;;;;;;6271728;23;20024;-86
2022/11/21 06:31:37;;;;;;;2.33;1.17;;;6.50;99.90;;;;;;6272096;22;19996;-87
2022/11/21 06:34:03;;;;;;;4.88;1.40;;;6.50;99.90;;;;;;6272846;22;20057;-87
2022/11/21 06:36:28;;;;;;;4.50;1.75;;;6.60;99.90;;;;;;6247755;23;20006;-87
2022/11/21 06:38:55;;;;;;;3.20;1.35;;;6.60;99.90;;;;;;6222255;22;20023;-88
2022/11/21 06:41:24;;;;;;;2.33;1.17;;;6.60;99.90;;;;;;6247540;22;20064;-87
2022/11/21 06:43:50;;;;;;;5.93;1.38;;;6.60;99.90;;;;;;6247705;22;20026;-86
2022/11/21 06:46:16;;;;;;;3.60;1.45;;;6.70;99.90;;;;;;6248187;22;20012;-88
2022/11/21 06:48:43;;;;;;;2.08;1.10;;;6.70;99.90;;;;;;6223034;22;20000;-87
2022/11/21 06:51:16;;;;;;;4.70;1.48;;;6.70;99.90;;;;;;6247654;22;20003;-88
2022/11/21 06:53:42;;;;;;;3.25;1.42;;;6.70;99.90;;;;;;6273987;22;20001;-88
2022/11/21 06:56:08;;;;;;;2.38;1.42;;;6.70;99.90;;;;;;6274241;22;20003;-88
2022/11/21 06:58:35;;;;;;;5.32;2.20;;;6.70;99.90;;;;;;6273916;22;20031;-87
2022/11/21 07:01:06;;;;;;;11.98;4.95;;;6.70;99.90;;;;;;6273518;22;19999;-86
2022/11/21 07:03:32;;;;;;;2.33;1.45;;;6.80;99.90;;;;;;6273525;22;19992;-87
2022/11/21 07:06:00;;;;;;;7.43;3.05;;;6.80;99.90;;;;;;6221550;23;20047;-88
2022/11/21 07:08:30;;;;;;;7.95;2.50;;;6.80;99.90;;;;;;6272098;22;19993;-87
2022/11/21 07:11:01;;;;;;;2.83;1.70;;;6.80;99.90;;;;;;6267652;23;20004;-89
2022/11/21 07:13:27;;;;;;;4.75;1.63;;;6.90;99.90;;;;;;6270820;23;20000;-87
2022/11/21 07:15:54;;;;;;;2.33;1.35;;;6.90;99.90;;;;;;6246612;22;20000;-86
2022/11/21 07:18:21;;;;;;;3.55;1.80;;;6.90;99.90;;;;;;6272852;22;20020;-86
2022/11/21 07:20:48;;;;;;;2.80;1.63;;;7.00;99.90;;;;;;6246767;22;20023;-87
2022/11/21 07:23:14;;;;;;;7.82;1.67;;;7.00;99.90;;;;;;6221951;22;20067;-87
2022/11/21 07:25:40;;;;;;;7.18;1.92;;;7.00;99.90;;;;;;6273018;22;19998;-88
2022/11/21 07:28:07;;;;;;;6.82;2.00;;;7.10;99.90;;;;;;6242266;23;20015;-87
2022/11/21 07:30:34;;;;;;;5.47;1.90;;;7.10;99.90;;;;;;6219301;23;20034;-87
2022/11/21 07:33:03;;;;;;;3.97;1.55;;;7.10;99.90;;;;;;6213806;23;20004;-88
2022/11/21 07:35:29;;;;;;;3.92;1.70;;;7.20;99.90;;;;;;6267248;23;19997;-86
2022/11/21 07:37:55;;;;;;;13.13;5.35;;;7.20;99.90;;;;;;6267353;23;19996;-85
2022/11/21 07:40:21;;;;;;;12.23;3.85;;;7.20;99.90;;;;;;6242256;23;20011;-85
2022/11/21 07:42:47;;;;;;;7.53;2.40;;;7.20;99.90;;;;;;6219932;22;20018;-86
2022/11/21 07:45:14;;;;;;;11.68;3.40;;;7.20;99.90;;;;;;6272900;22;19993;-86
2022/11/21 07:47:40;;;;;;;5.70;2.03;;;7.30;99.90;;;;;;6221806;22;20000;-87
2022/11/21 07:50:07;;;;;;;6.95;2.60;;;7.30;99.90;;;;;;6273594;22;19988;-88
2022/11/21 07:52:33;;;;;;;7.47;2.95;;;7.30;99.90;;;;;;6247151;22;20012;-87
2022/11/21 07:55:01;;;;;;;6.90;2.35;;;7.30;99.90;;;;;;6273188;22;20013;-86
2022/11/21 07:57:28;;;;;;;9.82;2.70;;;7.30;99.90;;;;;;6272753;22;20007;-86
2022/11/21 07:59:53;;;;;;;7.00;2.25;;;7.40;99.90;;;;;;6273102;22;20010;-85
2022/11/21 08:02:22;;;;;;;8.63;2.63;;;7.40;99.90;;;;;;6273500;22;19996;-86
2022/11/21 08:04:48;;;;;;;8.95;2.83;;;7.60;99.90;;;;;;6247450;22;19992;-85
2022/11/21 08:07:15;;;;;;;8.80;2.70;;;7.60;99.90;;;;;;6273616;22;20007;-86
2022/11/21 08:09:41;;;;;;;11.27;3.58;;;7.70;99.90;;;;;;6221768;22;20002;-86
2022/11/21 08:12:07;;;;;;;9.45;3.88;;;7.80;99.90;;;;;;6238555;23;20007;-87
2022/11/21 08:14:33;;;;;;;9.27;3.60;;;7.80;99.90;;;;;;6262732;23;20095;-88
2022/11/21 08:16:59;;;;;;;7.10;3.58;;;7.90;99.90;;;;;;6235441;23;20012;-87
2022/11/21 08:19:25;;;;;;;8.70;3.80;;;7.90;99.90;;;;;;6237695;23;20084;-85
2022/11/21 08:21:51;;;;;;;8.95;3.15;;;7.90;99.90;;;;;;6217021;23;20031;-86
2022/11/21 08:24:17;;;;;;;6.80;3.50;;;8.00;99.90;;;;;;6242399;23;19984;-86
2022/11/21 08:26:44;;;;;;;12.38;4.60;;;8.10;99.90;;;;;;6219440;23;20039;-87
2022/11/21 08:29:11;;;;;;;17.42;4.60;;;8.30;99.90;;;;;;6218493;23;20004;-87
2022/11/21 08:31:38;;;;;;;14.63;5.80;;;8.40;99.90;;;;;;6269347;23;20018;-86
2022/11/21 08:34:03;;;;;;;10.70;4.07;;;8.40;99.90;;;;;;6242504;23;20077;-86
2022/11/21 08:36:29;;;;;;;11.52;4.68;;;8.40;99.90;;;;;;6242390;22;20008;-86
2022/11/21 08:38:55;;;;;;;13.18;4.18;;;8.40;99.90;;;;;;6240865;23;20197;-83
2022/11/21 08:44:07;;;;;;;10.82;3.55;;;8.70;99.90;;;;;;6269998;22;20008;-86
2022/11/21 08:46:36;;;;;;;11.05;4.05;;;8.90;99.90;;;;;;6235129;23;20010;-86
2022/11/21 08:49:08;;;;;;;15.82;4.03;;;8.90;99.90;;;;;;6234437;23;20090;-86
2022/11/21 08:51:34;;;;;;;8.63;3.45;;;8.90;99.90;;;;;;6259466;23;20032;-86
2022/11/21 08:54:01;;;;;;;15.70;5.68;;;9.00;99.90;;;;;;6259984;23;20000;-85
2022/11/21 08:56:28;;;;;;;6.65;1.88;;;8.80;99.90;;;;;;6208197;23;20066;-86
2022/11/21 08:58:55;;;;;;;3.80;2.10;;;8.60;99.90;;;;;;6233451;23;20098;-85
2022/11/21 09:01:21;;;;;;;6.72;2.88;;;8.60;99.90;;;;;;6259569;23;20005;-84
2022/11/21 09:03:47;;;;;;;2.08;1.30;;;8.60;99.90;;;;;;6258632;23;19996;-84
2022/11/21 09:06:13;;;;;;;12.20;4.60;;;8.50;99.90;;;;;;6259446;23;20027;-85
2022/11/21 09:08:38;;;;;;;6.18;1.73;;;8.50;99.90;;;;;;6230407;23;20011;-85
2022/11/21 09:11:08;;;;;;;17.05;1.95;;;8.60;99.90;;;;;;6259383;23;20374;-85
2022/11/21 09:13:35;;;;;;;11.18;1.80;;;8.60;99.90;;;;;;6259517;23;20008;-84
2022/11/21 09:18:46;;;;;;;;;;;8.70;99.90;;;;;;6239625;22;19996;-81
2022/11/21 09:21:17;;;;;;;5.53;1.75;;;8.70;99.90;;;;;;6273807;22;19899;-83
2022/11/21 09:23:44;;;;;;;6.45;1.50;;;8.80;99.90;;;;;;6221367;23;20027;-84
2022/11/21 09:26:10;;;;;;;9.45;1.88;;;8.80;99.90;;;;;;6271837;23;20014;-85
2022/11/21 09:28:36;;;;;;;2.53;1.30;;;8.90;99.90;;;;;;6244769;23;20334;-84
2022/11/21 09:31:03;;;;;;;4.80;1.20;;;8.90;99.90;;;;;;6245427;23;20106;-86
2022/11/21 09:33:29;;;;;;;4.78;1.50;;;9.10;99.90;;;;;;6269313;23;20032;-84
2022/11/21 09:35:58;;;;;;;6.50;1.92;;;9.50;99.90;;;;;;6248191;22;19989;-81
2022/11/21 09:38:25;;;;;;;9.70;1.60;;;10.60;99.90;;;;;;6248554;22;20027;-83
2022/11/21 09:41:50;;;;;;;5.68;1.58;;;11.80;99.90;;;;;;6274989;22;20000;-84
2022/11/21 09:44:23;;;;;;;1.90;1.00;;;12.20;99.90;;;;;;6248826;22;20008;-83
2022/11/21 09:47:04;;;;;;;4.53;1.05;;;12.20;99.90;;;;;;6248219;22;20015;-82
2022/11/21 09:49:38;;;;;;;5.85;1.85;;;11.80;99.90;;;;;;6275099;22;19996;-83
2022/11/21 09:52:04;;;;;;;6.78;1.92;;;11.60;99.90;;;;;;6275404;22;20030;-82
2022/11/21 09:54:36;;;;;;;4.57;1.58;;;11.50;99.90;;;;;;6275219;22;19992;-83
2022/11/21 09:57:02;;;;;;;7.18;1.70;;;11.50;99.90;;;;;;6249821;22;20000;-85
2022/11/21 09:59:32;;;;;;;3.90;1.20;;;11.00;99.90;;;;;;6274242;22;19996;-84
2022/11/21 10:01:58;;;;;;;3.92;1.45;;;11.60;99.90;;;;;;6242711;23;20087;-86
2022/11/21 10:04:25;;;;;;;2.85;1.00;;;12.70;99.90;;;;;;6261245;23;20005;-88
2022/11/21 10:07:01;;;;;;;6.63;1.45;;;13.50;99.90;;;;;;6210919;23;20096;-88
2022/11/21 10:10:03;;;;;;;6.97;1.08;;;14.60;99.90;;;;;;6239462;23;20004;-85
2022/11/21 10:12:44;;;;;;;5.82;1.33;;;15.10;99.40;;;;;;6245209;23;20036;-86
2022/11/21 10:16:03;;;;;;;1.85;0.80;;;16.30;96.40;;;;;;6273523;22;20003;-85
2022/11/21 10:18:51;;;;;;;4.72;1.13;;;16.70;94.80;;;;;;6152087;23;20024;-83
2022/11/21 10:21:23;;;;;;;2.72;1.30;;;15.70;95.20;;;;;;6273259;22;20000;-84
2022/11/21 10:24:07;;;;;;;3.42;1.08;;;14.40;96.40;;;;;;6247543;23;20012;-83
2022/11/21 10:26:42;;;;;;;2.83;0.90;;;14.70;96.70;;;;;;6247323;23;20031;-84
2022/11/21 10:29:17;;;;;;;5.65;1.35;;;15.90;95.60;;;;;;6247381;22;20012;-84
2022/11/21 10:31:43;;;;;;;;;;;16.30;94.60;;;;;;6246638;22;20023;-86
2022/11/21 10:34:33;;;;;;;2.30;0.82;;;16.80;93.90;;;;;;6246210;22;19903;-82
2022/11/21 10:37:12;;;;;;;1.85;0.80;;;17.00;93.00;;;;;;6253751;22;20035;-82
2022/11/21 10:39:48;;;;;;;6.95;1.10;;;14.90;94.70;;;;;;6222061;23;20064;-82
2022/11/21 10:42:33;;;;;;;5.10;1.08;;;14.90;95.00;;;;;;6272503;22;20018;-83
2022/11/21 10:45:17;;;;;;;5.50;1.17;;;14.40;95.60;;;;;;6272916;22;20016;-81
2022/11/21 10:47:49;;;;;;;2.95;1.20;;;14.30;95.60;;;;;;6267305;23;20027;-86
2022/11/21 10:50:32;;;;;;;6.90;0.90;;;14.00;96.20;;;;;;6261065;23;20015;-84
2022/11/21 10:56:03;;;;;;;5.75;2.00;;;12.40;98.20;;;;;;6238016;23;20008;-85
2022/11/21 10:58:41;;;;;;;4.65;1.13;;;12.50;98.80;;;;;;6263381;23;20011;-87
2022/11/21 11:01:23;;;;;;;2.40;1.10;;;12.20;98.80;;;;;;6235624;23;20004;-84
2022/11/21 11:04:08;;;;;;;4.32;1.20;;;11.90;99.60;;;;;;6236364;23;20006;-85
2022/11/21 11:06:42;;;;;;;3.83;1.30;;;11.40;99.90;;;;;;6238095;23;20071;-85
2022/11/21 11:09:29;;;;;;;4.05;0.77;;;11.10;99.90;;;;;;6263848;23;20049;-84
2022/11/21 11:12:17;;;;;;;4.90;0.85;;;11.20;99.90;;;;;;6268612;23;19992;-86
2022/11/21 11:14:53;;;;;;;2.95;1.10;;;11.30;99.90;;;;;;6220693;23;20055;-83
2022/11/21 11:17:31;;;;;;;8.25;1.48;;;11.30;99.90;;;;;;6274285;22;20027;-83
2022/11/21 11:20:23;;;;;;;3.45;1.00;;;11.20;99.90;;;;;;6247504;22;20112;-83
2022/11/21 11:22:49;;;;;;;3.63;1.10;;;11.20;99.90;;;;;;6260783;22;20016;-82
2022/11/21 11:25:15;;;;;;;3.22;1.13;;;11.20;99.90;;;;;;6264839;22;20007;-82
2022/11/21 11:27:41;;;;;;;3.38;1.55;;;11.10;99.90;;;;;;6264477;23;20004;-83
2022/11/21 11:30:07;;;;;;;4.45;0.80;;;11.10;99.90;;;;;;6261153;22;20438;-83
2022/11/21 11:32:39;;;;;;;2.58;1.02;;;10.90;99.90;;;;;;6262109;23;20015;-82
2022/11/21 11:35:23;;;;;;;3.80;0.70;;;10.70;99.90;;;;;;6259635;23;20056;-80
2022/11/21 11:38:02;;;;;;;3.88;0.95;;;10.50;99.90;;;;;;6259818;23;20010;-82
2022/11/21 11:40:34;;;;;;;3.70;1.30;;;10.30;99.90;;;;;;6231850;23;20016;-82
2022/11/21 11:49:10;;;;;;;2.55;1.05;;;9.80;99.90;;;;;;6264398;23;20019;-82
2022/11/21 11:51:49;;;;;;;2.50;0.75;;;9.50;99.90;;;;;;6268307;23;20016;-82
2022/11/21 11:54:19;;;;;;;1.48;0.90;;;9.60;99.90;;;;;;6267782;23;20106;-82
2022/11/21 11:56:46;;;;;;;1.20;0.70;;;9.50;99.90;;;;;;6268414;22;20030;-82
2022/11/21 11:59:33;;;;;;;1.80;0.90;;;9.30;99.90;;;;;;6242372;23;20011;-82
2022/11/21 12:02:16;;;;;;;3.05;0.98;;;9.10;99.90;;;;;;6269569;22;20066;-82
2022/11/21 12:04:47;;;;;;;1.70;0.82;;;9.10;99.90;;;;;;6270852;22;20012;-81
2022/11/21 12:07:24;;;;;;;1.63;0.77;;;9.10;99.90;;;;;;6267836;22;20015;-81
2022/11/21 12:10:21;;;;;;;2.80;1.25;;;9.10;99.90;;;;;;6259950;22;20015;-81
2022/11/21 12:12:55;;;;;;;4.80;1.05;;;9.20;99.90;;;;;;6256974;23;20099;-82
2022/11/21 12:15:48;;;;;;;3.88;1.05;;;9.20;99.90;;;;;;6259202;22;20004;-82
2022/11/21 12:18:22;;;;;;;6.82;1.13;;;9.20;99.90;;;;;;6262354;22;20012;-81
2022/11/21 12:21:03;;;;;;;2.40;1.05;;;9.20;99.90;;;;;;6264924;22;20279;-80
2022/11/21 12:23:35;;;;;;;4.18;1.17;;;9.10;99.90;;;;;;6265329;22;20022;-81
2022/11/21 12:26:28;;;;;;;2.97;0.73;;;9.10;99.90;;;;;;6262344;23;20414;-81
2022/11/21 12:29:25;;;;;;;2.80;1.02;;;9.20;99.90;;;;;;6213879;22;20008;-81
2022/11/21 12:32:16;;;;;;;3.58;0.70;;;9.10;99.90;;;;;;6258146;22;20004;-81
2022/11/21 12:35:00;;;;;;;5.75;1.20;;;9.00;99.90;;;;;;6258674;22;20011;-82
2022/11/21 12:37:42;;;;;;;2.05;0.82;;;9.00;99.90;;;;;;6252706;23;20012;-81
2022/11/21 12:40:20;;;;;;;3.05;1.20;;;8.90;99.90;;;;;;6256152;22;20079;-81
2022/11/21 12:42:50;;;;;;;2.22;0.82;;;9.00;99.90;;;;;;6256332;23;20416;-81
2022/11/21 12:45:23;;;;;;;2.55;0.80;;;9.00;99.90;;;;;;6257459;22;20043;-82
2022/11/21 12:56:56;;;;;;;3.42;1.33;;;9.30;99.90;;;;;;6255103;23;20008;-82
2022/11/21 12:59:24;;;;;;;5.78;1.55;;;9.30;99.90;;;;;;6255063;23;20004;-80
2022/11/21 13:02:12;;;;;;;2.63;1.00;;;9.20;99.90;;;;;;6254190;22;20004;-81
2022/11/21 13:04:40;;;;;;;3.40;1.08;;;9.20;99.90;;;;;;6254222;22;20418;-81
2022/11/21 13:07:07;;;;;;;1.52;0.95;;;9.30;99.90;;;;;;6255242;22;19996;-80
2022/11/21 13:09:40;;;;;;;6.90;1.38;;;9.20;99.90;;;;;;6257909;22;20019;-81
2022/11/21 13:12:26;;;;;;;;;;;9.20;99.90;;;;;;6258249;23;20063;-82
2022/11/21 13:15:20;;;;;;;5.10;1.58;;;9.10;99.90;;;;;;6260188;23;19907;-80
2022/11/21 13:17:51;;;;;;;5.32;1.70;;;9.00;99.90;;;;;;6260882;22;20004;-80
2022/11/21 13:20:31;;;;;;;4.10;1.48;;;9.00;99.90;;;;;;6260859;22;20015;-81
2022/11/21 13:22:59;;;;;;;3.53;1.40;;;9.00;99.90;;;;;;6261440;23;20011;-81
2022/11/21 13:25:31;;;;;;;8.52;1.77;;;9.00;99.90;;;;;;6260716;22;20002;-82
2022/11/21 13:28:12;;;;;;;3.20;1.38;;;8.80;99.90;;;;;;6261001;22;20087;-82
2022/11/21 13:30:50;;;;;;;2.78;1.30;;;8.90;99.90;;;;;;6262048;22;20008;-80
2022/11/21 13:33:34;;;;;;;3.00;1.30;;;9.00;99.90;;;;;;6261104;22;20035;-80